sensor_id;sensor_type;location;lat;lon;timestamp;pressure;altitude;pressure_sealevel;temperature;humidity
19884;BME280;10104;50.732;10.174;2023-11-18T00:01:20;98718.72;;;-0.88;100.00
19884;BME280;10104;50.732;10.174;2023-11-18T00:04:00;98721.25;;;-0.87;100.00
19884;BME280;10104;50.732;10.174;2023-11-18T00:06:40;98717.97;;;-0.90;100.00
19884;BME280;10104;50.732;10.174;2023-11-18T00:09:20;98712.03;;;-0.92;100.00
19884;BME280;10104;50.732;10.174;2023-11-18T00:12:00;98715.19;;;-0.87;100.00
19884;BME280;10104;50.732;10.174;2023-11-18T00:14:41;98719.28;;;-0.97;100.00
19884;BME280;10104;50.732;10.174;2023-11-18T00:17:23;98707.81;;;-1.07;100.00
19884;BME280;10104;50.732;10.174;2023-11-18T00:20:03;98714.75;;;-1.08;100.00
19884;BME280;10104;50.732;10.174;2023-11-18T00:22:49;98713.38;;;-1.13;100.00
19884;BME280;10104;50.732;10.174;2023-11-18T00:25:30;98711.91;;;-1.17;100.00
19884;BME280;10104;50.732;10.174;2023-11-18T00:28:10;98714.22;;;-1.13;100.00
19884;BME280;10104;50.732;10.174;2023-11-18T00:30:51;98718.88;;;-1.18;100.00
19884;BME280;10104;50.732;10.174;2023-11-18T00:33:32;98711.91;;;-1.17;100.00
19884;BME280;10104;50.732;10.174;2023-11-18T00:36:12;98721.34;;;-1.16;100.00
19884;BME280;10104;50.732;10.174;2023-11-18T00:38:52;98725.63;;;-1.15;100.00
19884;BME280;10104;50.732;10.174;2023-11-18T00:41:33;98712.47;;;-1.12;100.00
19884;BME280;10104;50.732;10.174;2023-11-18T00:44:13;98714.41;;;-1.16;100.00
19884;BME280;10104;50.732;10.174;2023-11-18T00:46:53;98719.97;;;-1.22;100.00
19884;BME280;10104;50.732;10.174;2023-11-18T00:49:34;98720.63;;;-1.18;100.00
19884;BME280;10104;50.732;10.174;2023-11-18T00:52:14;98717.84;;;-1.15;100.00
19884;BME280;10104;50.732;10.174;2023-11-18T00:54:55;98722.09;;;-1.14;100.00
19884;BME280;10104;50.732;10.174;2023-11-18T00:57:35;98715.16;;;-1.14;100.00
19884;BME280;10104;50.732;10.174;2023-11-18T01:00:15;98723.69;;;-1.12;100.00
19884;BME280;10104;50.732;10.174;2023-11-18T01:03:02;98722.03;;;-1.13;100.00
19884;BME280;10104;50.732;10.174;2023-11-18T01:05:43;98731.13;;;-1.20;100.00
19884;BME280;10104;50.732;10.174;2023-11-18T01:08:24;98734.94;;;-1.26;100.00
19884;BME280;10104;50.732;10.174;2023-11-18T01:11:05;98730.56;;;-1.25;100.00
19884;BME280;10104;50.732;10.174;2023-11-18T01:13:46;98732.63;;;-1.30;100.00
19884;BME280;10104;50.732;10.174;2023-11-18T01:16:26;98740.97;;;-1.25;100.00
19884;BME280;10104;50.732;10.174;2023-11-18T01:19:08;98746.06;;;-1.38;100.00
19884;BME280;10104;50.732;10.174;2023-11-18T01:21:49;98745.50;;;-1.43;100.00
19884;BME280;10104;50.732;10.174;2023-11-18T01:24:29;98735.13;;;-1.43;100.00
19884;BME280;10104;50.732;10.174;2023-11-18T01:27:09;98748.00;;;-1.41;100.00
19884;BME280;10104;50.732;10.174;2023-11-18T01:29:50;98745.38;;;-1.41;100.00
19884;BME280;10104;50.732;10.174;2023-11-18T01:32:30;98746.59;;;-1.47;100.00
19884;BME280;10104;50.732;10.174;2023-11-18T01:35:11;98749.66;;;-1.40;100.00
19884;BME280;10104;50.732;10.174;2023-11-18T01:37:53;98754.03;;;-1.41;100.00
19884;BME280;10104;50.732;10.174;2023-11-18T01:40:34;98748.47;;;-1.49;100.00
19884;BME280;10104;50.732;10.174;2023-11-18T01:43:14;98750.69;;;-1.43;100.00
19884;BME280;10104;50.732;10.174;2023-11-18T01:45:54;98749.75;;;-1.42;100.00
19884;BME280;10104;50.732;10.174;2023-11-18T01:48:35;98753.66;;;-1.35;100.00
19884;BME280;10104;50.732;10.174;2023-11-18T01:51:16;98764.16;;;-1.36;100.00
19884;BME280;10104;50.732;10.174;2023-11-18T01:53:59;98766.75;;;-1.36;100.00
19884;BME280;10104;50.732;10.174;2023-11-18T01:56:39;98764.25;;;-1.38;100.00
19884;BME280;10104;50.732;10.174;2023-11-18T01:59:20;98773.31;;;-1.45;100.00
19884;BME280;10104;50.732;10.174;2023-11-18T02:02:01;98774.59;;;-1.52;100.00
19884;BME280;10104;50.732;10.174;2023-11-18T02:04:42;98763.22;;;-1.49;100.00
19884;BME280;10104;50.732;10.174;2023-11-18T02:07:25;98762.81;;;-1.57;100.00
19884;BME280;10104;50.732;10.174;2023-11-18T02:10:06;98768.28;;;-1.62;100.00
19884;BME280;10104;50.732;10.174;2023-11-18T02:13:12;98765.69;;;-1.62;100.00
19884;BME280;10104;50.732;10.174;2023-11-18T02:15:54;98770.22;;;-1.66;100.00
19884;BME280;10104;50.732;10.174;2023-11-18T02:18:38;98769.56;;;-1.69;100.00
19884;BME280;10104;50.732;10.174;2023-11-18T02:21:20;98775.69;;;-1.70;100.00
19884;BME280;10104;50.732;10.174;2023-11-18T02:24:03;98777.72;;;-1.75;100.00
19884;BME280;10104;50.732;10.174;2023-11-18T02:26:44;98775.97;;;-1.75;100.00
19884;BME280;10104;50.732;10.174;2023-11-18T02:29:28;98773.72;;;-1.81;100.00
19884;BME280;10104;50.732;10.174;2023-11-18T02:32:20;98780.34;;;-1.91;100.00
19884;BME280;10104;50.732;10.174;2023-11-18T02:35:18;98777.69;;;-1.89;100.00
19884;BME280;10104;50.732;10.174;2023-11-18T02:38:01;98783.72;;;-1.89;100.00
19884;BME280;10104;50.732;10.174;2023-11-18T02:40:43;98783.78;;;-1.90;100.00
19884;BME280;10104;50.732;10.174;2023-11-18T02:43:26;98780.47;;;-1.92;100.00
19884;BME280;10104;50.732;10.174;2023-11-18T02:46:09;98787.56;;;-1.96;100.00
19884;BME280;10104;50.732;10.174;2023-11-18T02:48:52;98782.22;;;-1.93;100.00
19884;BME280;10104;50.732;10.174;2023-11-18T02:51:35;98788.06;;;-1.89;100.00
19884;BME280;10104;50.732;10.174;2023-11-18T02:54:19;98783.28;;;-1.81;100.00
19884;BME280;10104;50.732;10.174;2023-11-18T02:56:59;98782.16;;;-1.77;100.00
19884;BME280;10104;50.732;10.174;2023-11-18T02:59:39;98786.78;;;-1.82;100.00
19884;BME280;10104;50.732;10.174;2023-11-18T03:02:19;98783.63;;;-1.87;100.00
19884;BME280;10104;50.732;10.174;2023-11-18T03:05:01;98784.47;;;-1.87;100.00
19884;BME280;10104;50.732;10.174;2023-11-18T03:07:42;98780.69;;;-1.81;100.00
19884;BME280;10104;50.732;10.174;2023-11-18T03:10:24;98786.38;;;-1.90;100.00
19884;BME280;10104;50.732;10.174;2023-11-18T03:13:04;98780.47;;;-1.92;100.00
19884;BME280;10104;50.732;10.174;2023-11-18T03:15:45;98775.09;;;-1.89;100.00
19884;BME280;10104;50.732;10.174;2023-11-18T03:18:28;98775.84;;;-1.87;100.00
19884;BME280;10104;50.732;10.174;2023-11-18T03:21:12;98766.81;;;-1.96;100.00
19884;BME280;10104;50.732;10.174;2023-11-18T03:23:52;98769.41;;;-1.96;100.00
19884;BME280;10104;50.732;10.174;2023-11-18T03:26:33;98760.91;;;-1.98;100.00
19884;BME280;10104;50.732;10.174;2023-11-18T03:29:13;98760.91;;;-1.98;100.00
19884;BME280;10104;50.732;10.174;2023-11-18T03:31:53;98758.75;;;-2.06;100.00
19884;BME280;10104;50.732;10.174;2023-11-18T03:34:33;98760.31;;;-2.03;100.00
19884;BME280;10104;50.732;10.174;2023-11-18T03:37:14;98762.81;;;-2.01;100.00
19884;BME280;10104;50.732;10.174;2023-11-18T03:39:54;98758.00;;;-2.08;100.00
19884;BME280;10104;50.732;10.174;2023-11-18T03:42:34;98761.16;;;-2.03;100.00
19884;BME280;10104;50.732;10.174;2023-11-18T03:45:15;98762.41;;;-2.10;100.00
19884;BME280;10104;50.732;10.174;2023-11-18T03:47:57;98773.25;;;-2.17;100.00
19884;BME280;10104;50.732;10.174;2023-11-18T03:50:38;98777.94;;;-2.24;100.00
19884;BME280;10104;50.732;10.174;2023-11-18T03:53:18;98779.50;;;-2.21;100.00
19884;BME280;10104;50.732;10.174;2023-11-18T03:55:58;98777.13;;;-2.24;100.00
19884;BME280;10104;50.732;10.174;2023-11-18T03:58:38;98780.53;;;-2.24;100.00
19884;BME280;10104;50.732;10.174;2023-11-18T04:01:21;98777.69;;;-2.19;100.00
19884;BME280;10104;50.732;10.174;2023-11-18T04:04:02;98777.25;;;-2.12;100.00
19884;BME280;10104;50.732;10.174;2023-11-18T04:06:44;98776.94;;;-2.21;100.00
19884;BME280;10104;50.732;10.174;2023-11-18T04:09:27;98775.34;;;-2.24;100.00
19884;BME280;10104;50.732;10.174;2023-11-18T04:12:07;98760.97;;;-2.29;100.00
19884;BME280;10104;50.732;10.174;2023-11-18T04:14:48;98752.53;;;-2.33;100.00
19884;BME280;10104;50.732;10.174;2023-11-18T04:17:28;98758.06;;;-2.39;100.00
19884;BME280;10104;50.732;10.174;2023-11-18T04:20:10;98763.78;;;-2.48;100.00
19884;BME280;10104;50.732;10.174;2023-11-18T04:22:51;98762.75;;;-2.46;100.00
19884;BME280;10104;50.732;10.174;2023-11-18T04:25:31;98757.66;;;-2.47;100.00
19884;BME280;10104;50.732;10.174;2023-11-18T04:28:12;98748.72;;;-2.41;100.00
19884;BME280;10104;50.732;10.174;2023-11-18T04:30:52;98753.28;;;-2.47;100.00
19884;BME280;10104;50.732;10.174;2023-11-18T04:33:33;98754.06;;;-2.45;100.00
19884;BME280;10104;50.732;10.174;2023-11-18T04:36:13;98754.25;;;-2.48;100.00
19884;BME280;10104;50.732;10.174;2023-11-18T04:38:56;98753.63;;;-2.53;100.00
19884;BME280;10104;50.732;10.174;2023-11-18T04:41:36;98751.22;;;-2.56;100.00
19884;BME280;10104;50.732;10.174;2023-11-18T04:44:16;98753.41;;;-2.48;100.00
19884;BME280;10104;50.732;10.174;2023-11-18T04:46:57;98757.19;;;-2.54;100.00
19884;BME280;10104;50.732;10.174;2023-11-18T04:49:38;98762.94;;;-2.49;100.00
19884;BME280;10104;50.732;10.174;2023-11-18T04:52:18;98754.41;;;-2.51;100.00
19884;BME280;10104;50.732;10.174;2023-11-18T04:54:59;98764.59;;;-2.48;100.00
19884;BME280;10104;50.732;10.174;2023-11-18T04:57:40;98768.38;;;-2.53;100.00
19884;BME280;10104;50.732;10.174;2023-11-18T05:00:20;98763.84;;;-2.50;100.00
19884;BME280;10104;50.732;10.174;2023-11-18T05:03:01;98757.97;;;-2.37;100.00
19884;BME280;10104;50.732;10.174;2023-11-18T05:05:43;98752.03;;;-2.39;100.00
19884;BME280;10104;50.732;10.174;2023-11-18T05:08:24;98748.53;;;-2.38;100.00
19884;BME280;10104;50.732;10.174;2023-11-18T05:11:04;98752.13;;;-2.41;100.00
19884;BME280;10104;50.732;10.174;2023-11-18T05:13:45;98752.88;;;-2.39;100.00
19884;BME280;10104;50.732;10.174;2023-11-18T05:16:25;98749.19;;;-2.35;100.00
19884;BME280;10104;50.732;10.174;2023-11-18T05:19:05;98753.63;;;-2.37;100.00
19884;BME280;10104;50.732;10.174;2023-11-18T05:21:47;98753.94;;;-2.27;100.00
19884;BME280;10104;50.732;10.174;2023-11-18T05:24:30;98750.00;;;-2.34;100.00
19884;BME280;10104;50.732;10.174;2023-11-18T05:27:10;98747.94;;;-2.43;100.00
19884;BME280;10104;50.732;10.174;2023-11-18T05:29:50;98747.69;;;-2.39;100.00
19884;BME280;10104;50.732;10.174;2023-11-18T05:32:34;98752.13;;;-2.41;100.00
19884;BME280;10104;50.732;10.174;2023-11-18T05:35:15;98754.41;;;-2.51;100.00
19884;BME280;10104;50.732;10.174;2023-11-18T05:37:55;98751.31;;;-2.41;100.00
19884;BME280;10104;50.732;10.174;2023-11-18T05:40:36;98758.25;;;-2.42;100.00
19884;BME280;10104;50.732;10.174;2023-11-18T05:43:19;98755.31;;;-2.52;100.00
19884;BME280;10104;50.732;10.174;2023-11-18T05:46:00;98751.72;;;-2.49;100.00
19884;BME280;10104;50.732;10.174;2023-11-18T05:49:03;98747.72;;;-2.55;100.00
19884;BME280;10104;50.732;10.174;2023-11-18T05:51:47;98753.81;;;-2.56;100.00
19884;BME280;10104;50.732;10.174;2023-11-18T05:54:27;98761.94;;;-2.62;100.00
19884;BME280;10104;50.732;10.174;2023-11-18T05:57:07;98752.66;;;-2.66;100.00
19884;BME280;10104;50.732;10.174;2023-11-18T05:59:47;98750.06;;;-2.66;100.00
19884;BME280;10104;50.732;10.174;2023-11-18T06:02:28;98745.88;;;-2.68;100.00
19884;BME280;10104;50.732;10.174;2023-11-18T06:05:10;98747.50;;;-2.66;100.00
19884;BME280;10104;50.732;10.174;2023-11-18T06:07:52;98749.06;;;-2.63;100.00
19884;BME280;10104;50.732;10.174;2023-11-18T06:10:33;98749.31;;;-2.68;100.00
19884;BME280;10104;50.732;10.174;2023-11-18T06:13:14;98751.34;;;-2.73;100.00
19884;BME280;10104;50.732;10.174;2023-11-18T06:15:56;98756.59;;;-2.74;100.00
19884;BME280;10104;50.732;10.174;2023-11-18T06:18:38;98755.09;;;-2.78;100.00
19884;BME280;10104;50.732;10.174;2023-11-18T06:21:20;98754.00;;;-2.74;100.00
19884;BME280;10104;50.732;10.174;2023-11-18T06:24:05;98761.28;;;-2.81;100.00
19884;BME280;10104;50.732;10.174;2023-11-18T06:26:45;98760.16;;;-2.77;100.00
19884;BME280;10104;50.732;10.174;2023-11-18T06:29:27;98751.81;;;-2.82;100.00
19884;BME280;10104;50.732;10.174;2023-11-18T06:32:09;98751.41;;;-2.74;100.00
19884;BME280;10104;50.732;10.174;2023-11-18T06:34:49;98752.56;;;-2.64;100.00
19884;BME280;10104;50.732;10.174;2023-11-18T06:37:33;98762.78;;;-2.61;100.00
19884;BME280;10104;50.732;10.174;2023-11-18T06:40:13;98768.78;;;-2.61;100.00
19884;BME280;10104;50.732;10.174;2023-11-18T06:42:56;98778.31;;;-2.61;100.00
19884;BME280;10104;50.732;10.174;2023-11-18T06:45:42;98769.13;;;-2.67;100.00
19884;BME280;10104;50.732;10.174;2023-11-18T06:48:23;98767.88;;;-2.60;100.00
19884;BME280;10104;50.732;10.174;2023-11-18T06:51:03;98764.84;;;-2.52;100.00
19884;BME280;10104;50.732;10.174;2023-11-18T06:53:45;98759.16;;;-2.43;100.00
19884;BME280;10104;50.732;10.174;2023-11-18T06:56:28;98742.56;;;-2.40;100.00
19884;BME280;10104;50.732;10.174;2023-11-18T06:59:12;98735.56;;;-2.38;100.00
19884;BME280;10104;50.732;10.174;2023-11-18T07:01:54;98739.81;;;-2.37;100.00
19884;BME280;10104;50.732;10.174;2023-11-18T07:04:34;98751.19;;;-2.40;100.00
19884;BME280;10104;50.732;10.174;2023-11-18T07:07:15;98755.38;;;-2.37;100.00
19884;BME280;10104;50.732;10.174;2023-11-18T07:09:56;98750.28;;;-2.39;100.00
19884;BME280;10104;50.732;10.174;2023-11-18T07:12:36;98752.38;;;-2.30;100.00
19884;BME280;10104;50.732;10.174;2023-11-18T07:15:17;98753.28;;;-2.31;100.00
19884;BME280;10104;50.732;10.174;2023-11-18T07:17:58;98761.81;;;-2.29;100.00
19884;BME280;10104;50.732;10.174;2023-11-18T07:20:38;98779.50;;;-2.21;100.00
19884;BME280;10104;50.732;10.174;2023-11-18T07:23:19;98789.38;;;-2.12;100.00
19884;BME280;10104;50.732;10.174;2023-11-18T07:26:00;98795.16;;;-2.07;100.00
19884;BME280;10104;50.732;10.174;2023-11-18T07:28:40;98796.13;;;-1.94;100.00
19884;BME280;10104;50.732;10.174;2023-11-18T07:31:21;98790.50;;;-1.86;100.00
19884;BME280;10104;50.732;10.174;2023-11-18T07:34:05;98800.38;;;-1.63;100.00
19884;BME280;10104;50.732;10.174;2023-11-18T07:36:46;98799.09;;;-1.56;100.00
19884;BME280;10104;50.732;10.174;2023-11-18T07:39:27;98804.28;;;-1.42;100.00
19884;BME280;10104;50.732;10.174;2023-11-18T07:42:16;98791.59;;;-1.32;100.00
19884;BME280;10104;50.732;10.174;2023-11-18T07:44:57;98792.00;;;-1.24;100.00
19884;BME280;10104;50.732;10.174;2023-11-18T07:47:38;98796.25;;;-1.09;100.00
19884;BME280;10104;50.732;10.174;2023-11-18T07:50:19;98800.06;;;-1.00;100.00
19884;BME280;10104;50.732;10.174;2023-11-18T07:52:59;98800.78;;;-0.98;100.00
19884;BME280;10104;50.732;10.174;2023-11-18T07:55:39;98804.13;;;-0.82;100.00
19884;BME280;10104;50.732;10.174;2023-11-18T07:58:20;98789.81;;;-0.75;100.00
19884;BME280;10104;50.732;10.174;2023-11-18T08:01:04;98791.28;;;-0.57;100.00
19884;BME280;10104;50.732;10.174;2023-11-18T08:03:47;98791.03;;;-0.39;100.00
19884;BME280;10104;50.732;10.174;2023-11-18T08:06:27;98797.22;;;-0.28;100.00
19884;BME280;10104;50.732;10.174;2023-11-18T08:09:11;98797.56;;;-0.20;100.00
19884;BME280;10104;50.732;10.174;2023-11-18T08:11:54;98795.53;;;-0.02;100.00
19884;BME280;10104;50.732;10.174;2023-11-18T08:14:35;98792.31;;;0.07;100.00
19884;BME280;10104;50.732;10.174;2023-11-18T08:17:15;98801.09;;;0.19;100.00
19884;BME280;10104;50.732;10.174;2023-11-18T08:19:55;98799.16;;;0.22;100.00
19884;BME280;10104;50.732;10.174;2023-11-18T08:22:36;98810.94;;;0.28;100.00
19884;BME280;10104;50.732;10.174;2023-11-18T08:25:16;98800.09;;;0.34;100.00
19884;BME280;10104;50.732;10.174;2023-11-18T08:27:57;98810.13;;;0.40;100.00
19884;BME280;10104;50.732;10.174;2023-11-18T08:30:37;98807.09;;;0.46;100.00
19884;BME280;10104;50.732;10.174;2023-11-18T08:33:19;98810.13;;;0.53;100.00
19884;BME280;10104;50.732;10.174;2023-11-18T08:35:59;98803.06;;;0.55;100.00
19884;BME280;10104;50.732;10.174;2023-11-18T08:38:41;98789.28;;;0.53;100.00
19884;BME280;10104;50.732;10.174;2023-11-18T08:41:24;98787.00;;;0.48;100.00
19884;BME280;10104;50.732;10.174;2023-11-18T08:44:04;98790.72;;;0.44;100.00
19884;BME280;10104;50.732;10.174;2023-11-18T08:47:01;98787.81;;;0.36;100.00
19884;BME280;10104;50.732;10.174;2023-11-18T08:49:48;98789.59;;;0.35;100.00
19884;BME280;10104;50.732;10.174;2023-11-18T08:52:29;98783.44;;;0.36;100.00
19884;BME280;10104;50.732;10.174;2023-11-18T08:55:11;98770.84;;;0.43;100.00
19884;BME280;10104;50.732;10.174;2023-11-18T08:58:01;98768.88;;;0.47;100.00
19884;BME280;10104;50.732;10.174;2023-11-18T09:00:47;98768.44;;;0.53;100.00
19884;BME280;10104;50.732;10.174;2023-11-18T09:03:35;98768.88;;;0.59;100.00
19884;BME280;10104;50.732;10.174;2023-11-18T09:06:16;98762.59;;;0.62;100.00
19884;BME280;10104;50.732;10.174;2023-11-18T09:09:06;98758.34;;;0.86;100.00
19884;BME280;10104;50.732;10.174;2023-11-18T09:11:51;98767.19;;;0.84;100.00
19884;BME280;10104;50.732;10.174;2023-11-18T09:14:31;98763.00;;;0.94;100.00
19884;BME280;10104;50.732;10.174;2023-11-18T09:17:13;98765.41;;;0.97;100.00
19884;BME280;10104;50.732;10.174;2023-11-18T09:19:54;98768.94;;;0.96;100.00
19884;BME280;10104;50.732;10.174;2023-11-18T09:22:36;98761.53;;;1.02;100.00
19884;BME280;10104;50.732;10.174;2023-11-18T09:25:17;98757.66;;;1.08;100.00
19884;BME280;10104;50.732;10.174;2023-11-18T09:27:57;98765.13;;;1.25;100.00
19884;BME280;10104;50.732;10.174;2023-11-18T09:30:38;98767.44;;;1.30;100.00
19884;BME280;10104;50.732;10.174;2023-11-18T09:33:20;98781.91;;;1.34;100.00
19884;BME280;10104;50.732;10.174;2023-11-18T09:36:07;98783.66;;;1.46;100.00
19884;BME280;10104;50.732;10.174;2023-11-18T09:38:48;98781.34;;;1.54;100.00
19884;BME280;10104;50.732;10.174;2023-11-18T09:41:29;98780.03;;;1.72;100.00
19884;BME280;10104;50.732;10.174;2023-11-18T09:44:10;98774.16;;;1.92;100.00
19884;BME280;10104;50.732;10.174;2023-11-18T09:46:56;98778.66;;;2.14;100.00
19884;BME280;10104;50.732;10.174;2023-11-18T09:49:45;98777.97;;;2.23;100.00
19884;BME280;10104;50.732;10.174;2023-11-18T09:52:26;98772.25;;;2.18;100.00
19884;BME280;10104;50.732;10.174;2023-11-18T09:55:13;98776.09;;;2.25;100.00
19884;BME280;10104;50.732;10.174;2023-11-18T09:58:04;98776.97;;;2.48;100.00
19884;BME280;10104;50.732;10.174;2023-11-18T10:00:48;98763.00;;;2.71;100.00
19884;BME280;10104;50.732;10.174;2023-11-18T10:03:31;98761.81;;;2.87;100.00
19884;BME280;10104;50.732;10.174;2023-11-18T10:06:13;98758.97;;;3.12;100.00
19884;BME280;10104;50.732;10.174;2023-11-18T10:08:55;98744.88;;;3.35;100.00
19884;BME280;10104;50.732;10.174;2023-11-18T10:11:35;98756.44;;;3.44;100.00
19884;BME280;10104;50.732;10.174;2023-11-18T10:14:16;98767.44;;;3.58;100.00
19884;BME280;10104;50.732;10.174;2023-11-18T10:16:57;98758.38;;;3.74;100.00
19884;BME280;10104;50.732;10.174;2023-11-18T10:19:57;98761.72;;;3.76;100.00
19884;BME280;10104;50.732;10.174;2023-11-18T10:22:40;98756.59;;;3.74;100.00
19884;BME280;10104;50.732;10.174;2023-11-18T10:25:24;98745.72;;;3.79;100.00
19884;BME280;10104;50.732;10.174;2023-11-18T10:28:04;98740.75;;;3.76;100.00
19884;BME280;10104;50.732;10.174;2023-11-18T10:30:45;98738.81;;;3.78;100.00
19884;BME280;10104;50.732;10.174;2023-11-18T10:33:28;98741.09;;;3.82;100.00
19884;BME280;10104;50.732;10.174;2023-11-18T10:36:21;98725.06;;;3.96;100.00
19884;BME280;10104;50.732;10.174;2023-11-18T10:39:03;98728.00;;;4.03;100.00
19884;BME280;10104;50.732;10.174;2023-11-18T10:41:58;98720.53;;;3.98;100.00
19884;BME280;10104;50.732;10.174;2023-11-18T10:44:54;98720.47;;;4.10;100.00
19884;BME280;10104;50.732;10.174;2023-11-18T10:47:37;98720.47;;;4.10;100.00
19884;BME280;10104;50.732;10.174;2023-11-18T10:50:19;98712.50;;;4.32;100.00
19884;BME280;10104;50.732;10.174;2023-11-18T10:53:02;98705.50;;;4.63;100.00
19884;BME280;10104;50.732;10.174;2023-11-18T10:55:44;98706.44;;;4.92;100.00
19884;BME280;10104;50.732;10.174;2023-11-18T10:58:25;98702.59;;;5.46;100.00
19884;BME280;10104;50.732;10.174;2023-11-18T11:01:07;98712.56;;;5.71;100.00
19884;BME280;10104;50.732;10.174;2023-11-18T11:03:55;98704.41;;;5.84;100.00
19884;BME280;10104;50.732;10.174;2023-11-18T11:06:40;98700.97;;;6.12;100.00
19884;BME280;10104;50.732;10.174;2023-11-18T11:09:25;98692.81;;;6.15;100.00
19884;BME280;10104;50.732;10.174;2023-11-18T11:12:10;98699.56;;;6.37;100.00
19884;BME280;10104;50.732;10.174;2023-11-18T11:15:02;98686.66;;;6.43;100.00
19884;BME280;10104;50.732;10.174;2023-11-18T11:17:48;98681.91;;;6.66;99.90
19884;BME280;10104;50.732;10.174;2023-11-18T11:20:39;98671.53;;;6.55;99.94
19884;BME280;10104;50.732;10.174;2023-11-18T11:26:35;98657.31;;;6.85;98.75
19884;BME280;10104;50.732;10.174;2023-11-18T11:29:32;98661.16;;;6.90;97.28
19884;BME280;10104;50.732;10.174;2023-11-18T11:32:34;98659.16;;;6.75;97.04
19884;BME280;10104;50.732;10.174;2023-11-18T11:35:22;98658.78;;;6.97;96.68
19884;BME280;10104;50.732;10.174;2023-11-18T11:38:03;98650.69;;;7.08;97.25
19884;BME280;10104;50.732;10.174;2023-11-18T11:40:50;98650.59;;;7.18;96.98
19884;BME280;10104;50.732;10.174;2023-11-18T11:43:34;98653.97;;;7.10;96.29
19884;BME280;10104;50.732;10.174;2023-11-18T11:46:15;98658.13;;;7.13;96.22
19884;BME280;10104;50.732;10.174;2023-11-18T11:49:04;98649.03;;;7.25;95.91
19884;BME280;10104;50.732;10.174;2023-11-18T11:54:42;98619.94;;;7.26;96.74
19884;BME280;10104;50.732;10.174;2023-11-18T11:57:24;98608.44;;;7.27;95.90
19884;BME280;10104;50.732;10.174;2023-11-18T12:00:12;98609.31;;;7.36;95.11
19884;BME280;10104;50.732;10.174;2023-11-18T12:02:56;98590.59;;;7.39;94.84
19884;BME280;10104;50.732;10.174;2023-11-18T12:05:39;98584.47;;;7.39;95.24
19884;BME280;10104;50.732;10.174;2023-11-18T12:08:24;98572.34;;;7.10;94.86
19884;BME280;10104;50.732;10.174;2023-11-18T12:11:05;98564.88;;;6.88;96.29
19884;BME280;10104;50.732;10.174;2023-11-18T12:14:03;98565.63;;;6.98;95.99
19884;BME280;10104;50.732;10.174;2023-11-18T12:19:38;98592.06;;;7.24;94.48
19884;BME280;10104;50.732;10.174;2023-11-18T12:22:27;98606.03;;;7.34;96.63
19884;BME280;10104;50.732;10.174;2023-11-18T12:27:56;98587.41;;;7.36;94.60
19884;BME280;10104;50.732;10.174;2023-11-18T12:30:39;98578.25;;;7.40;94.29
19884;BME280;10104;50.732;10.174;2023-11-18T12:33:25;98577.41;;;7.39;94.69
19884;BME280;10104;50.732;10.174;2023-11-18T12:42:03;98562.06;;;7.52;92.73
19884;BME280;10104;50.732;10.174;2023-11-18T12:44:59;98552.94;;;7.47;93.34
19884;BME280;10104;50.732;10.174;2023-11-18T12:47:45;98557.53;;;7.45;94.25
19884;BME280;10104;50.732;10.174;2023-11-18T12:50:29;98552.03;;;7.56;93.74
19884;BME280;10104;50.732;10.174;2023-11-18T12:53:12;98545.47;;;7.42;93.17
19884;BME280;10104;50.732;10.174;2023-11-18T12:55:54;98550.75;;;7.42;93.82
19884;BME280;10104;50.732;10.174;2023-11-18T12:58:35;98554.22;;;7.43;93.57
19884;BME280;10104;50.732;10.174;2023-11-18T13:01:15;98548.03;;;7.52;95.14
19884;BME280;10104;50.732;10.174;2023-11-18T13:03:56;98567.72;;;7.22;93.87
19884;BME280;10104;50.732;10.174;2023-11-18T13:06:36;98565.34;;;7.37;94.73
19884;BME280;10104;50.732;10.174;2023-11-18T13:09:17;98574.00;;;7.11;95.20
19884;BME280;10104;50.732;10.174;2023-11-18T13:12:08;98571.81;;;7.07;94.60
19884;BME280;10104;50.732;10.174;2023-11-18T13:14:49;98565.81;;;6.97;97.09
19884;BME280;10104;50.732;10.174;2023-11-18T13:17:29;98563.72;;;6.73;96.51
19884;BME280;10104;50.732;10.174;2023-11-18T13:20:14;98557.97;;;6.32;96.88
19884;BME280;10104;50.732;10.174;2023-11-18T13:22:55;98556.59;;;6.28;98.24
19884;BME280;10104;50.732;10.174;2023-11-18T13:25:36;98550.78;;;6.25;99.46
19884;BME280;10104;50.732;10.174;2023-11-18T13:28:22;98554.25;;;6.25;99.27
19884;BME280;10104;50.732;10.174;2023-11-18T13:31:02;98550.19;;;5.94;99.94
19884;BME280;10104;50.732;10.174;2023-11-18T13:33:48;98545.25;;;5.91;100.00
19884;BME280;10104;50.732;10.174;2023-11-18T13:36:31;98537.63;;;5.78;100.00
19884;BME280;10104;50.732;10.174;2023-11-18T13:39:16;98535.84;;;5.69;100.00
19884;BME280;10104;50.732;10.174;2023-11-18T13:41:57;98527.16;;;5.49;100.00
19884;BME280;10104;50.732;10.174;2023-11-18T13:44:39;98525.22;;;5.51;100.00
19884;BME280;10104;50.732;10.174;2023-11-18T13:47:21;98523.28;;;5.63;100.00
19884;BME280;10104;50.732;10.174;2023-11-18T13:50:07;98519.81;;;5.62;100.00
19884;BME280;10104;50.732;10.174;2023-11-18T13:52:48;98514.84;;;5.59;100.00
19884;BME280;10104;50.732;10.174;2023-11-18T13:55:28;98518.59;;;5.57;100.00
19884;BME280;10104;50.732;10.174;2023-11-18T13:58:12;98511.28;;;5.51;100.00
19884;BME280;10104;50.732;10.174;2023-11-18T14:00:52;98516.41;;;5.52;100.00
19884;BME280;10104;50.732;10.174;2023-11-18T14:03:34;98511.00;;;5.44;100.00
19884;BME280;10104;50.732;10.174;2023-11-18T14:06:14;98501.66;;;5.22;100.00
19884;BME280;10104;50.732;10.174;2023-11-18T14:08:57;98496.94;;;5.16;100.00
19884;BME280;10104;50.732;10.174;2023-11-18T14:11:37;98496.00;;;4.98;100.00
19884;BME280;10104;50.732;10.174;2023-11-18T14:14:18;98489.91;;;4.98;100.00
19884;BME280;10104;50.732;10.174;2023-11-18T14:16:58;98486.44;;;5.07;100.00
19884;BME280;10104;50.732;10.174;2023-11-18T14:19:39;98478.56;;;5.07;100.00
19884;BME280;10104;50.732;10.174;2023-11-18T14:22:21;98470.28;;;5.02;100.00